Time;durP1;ratioP1;P1;durP2;ratioP2;P2;SDS_P1;SDS_P2;PMS_P1;PMS_P2;Temp;Humidity;BMP_temperature;BMP_pressure;BME280_temperature;BME280_humidity;BME280_pressure;Samples;Min_cycle;Max_cycle;Signal;HPM_P1;HPM_P2
2022/04/30 00:01:16;;;;;;;4.70;4.50;;;;;;;7.58;73.26;102699.88;4974390;28;20469;-51
2022/04/30 00:03:44;;;;;;;4.60;4.40;;;;;;;7.61;73.32;102702.25;4975058;28;20497;-50
2022/04/30 00:06:13;;;;;;;4.70;4.50;;;;;;;7.64;73.39;102704.66;4975315;28;20805;-49
2022/04/30 00:08:40;;;;;;;4.83;4.53;;;;;;;7.66;72.70;102702.69;4975326;28;20435;-49
2022/04/30 00:11:08;;;;;;;5.27;4.97;;;;;;;7.66;73.42;102697.38;4974556;28;20473;-48
2022/04/30 00:13:37;;;;;;;4.93;4.63;;;;;;;7.66;73.04;102708.00;4975076;28;20435;-53
2022/04/30 00:16:05;;;;;;;5.53;5.07;;;;;;;7.65;73.16;102698.34;4975005;28;20438;-51
2022/04/30 00:18:32;;;;;;;5.60;5.20;;;;;;;7.64;72.70;102702.00;4975345;28;20518;-51
2022/04/30 00:21:00;;;;;;;5.30;5.10;;;;;;;7.65;72.19;102701.84;4974459;28;20470;-49
2022/04/30 00:23:30;;;;;;;5.20;5.00;;;;;;;7.59;72.70;102699.72;4974894;28;20801;-48
2022/04/30 00:25:57;;;;;;;5.33;5.03;;;;;;;7.55;71.49;102695.66;4974898;28;20461;-50
2022/04/30 00:28:26;;;;;;;5.00;4.80;;;;;;;7.57;73.33;102701.66;4974866;28;20461;-52
2022/04/30 00:30:54;;;;;;;5.57;5.27;;;;;;;7.59;73.62;102688.25;4973989;28;20463;-50
2022/04/30 00:33:23;;;;;;;5.37;4.83;;;;;;;7.59;73.24;102701.53;4974411;28;20475;-48
2022/04/30 00:35:50;;;;;;;6.60;6.23;;;;;;;7.55;73.32;102698.31;4974658;28;20439;-48
2022/04/30 00:38:18;;;;;;;6.40;6.00;;;;;;;7.54;74.02;102690.47;4974479;28;20434;-48
2022/04/30 00:40:47;;;;;;;5.13;4.83;;;;;;;7.49;73.40;102698.81;5001806;22;20927;-47
2022/04/30 00:43:14;;;;;;;6.00;5.70;;;;;;;7.46;74.36;102696.44;4993715;28;20441;-45
2022/04/30 00:45:46;;;;;;;6.17;5.77;;;;;;;7.43;74.47;102693.19;4979593;28;20446;-46
2022/04/30 00:48:14;;;;;;;6.10;5.60;;;;;;;7.38;74.72;102695.41;4993540;28;20480;-45
2022/04/30 00:50:42;;;;;;;5.50;5.20;;;;;;;7.33;75.37;102690.47;4991216;28;20473;-44
2022/04/30 00:53:12;;;;;;;6.23;5.63;;;;;;;7.31;75.28;102696.88;4990700;28;20440;-49
2022/04/30 00:55:43;;;;;;;8.83;6.27;;;;;;;7.30;77.03;102685.41;4990832;28;20433;-48
2022/04/30 00:58:16;;;;;;;6.50;6.00;;;;;;;7.22;77.15;102686.06;4992741;28;20431;-45
2022/04/30 01:00:44;;;;;;;6.17;5.77;;;;;;;7.23;77.51;102690.38;4992579;28;20489;-45
2022/04/30 01:03:12;;;;;;;6.30;6.03;;;;;;;7.17;79.21;102688.22;4993341;28;20524;-50
2022/04/30 01:05:40;;;;;;;6.30;6.00;;;;;;;7.18;78.72;102679.31;4993183;28;20453;-48
2022/04/30 01:08:08;;;;;;;6.97;6.47;;;;;;;7.11;79.43;102687.88;4993254;28;20441;-43
2022/04/30 01:10:35;;;;;;;7.43;6.73;;;;;;;7.11;80.79;102683.44;4992945;28;20437;-48
2022/04/30 01:13:03;;;;;;;5.90;5.60;;;;;;;7.07;81.51;102684.66;4992630;28;20472;-45
2022/04/30 01:15:33;;;;;;;7.33;6.83;;;;;;;7.04;81.85;102684.06;4993082;28;20462;-43
2022/04/30 01:18:01;;;;;;;6.60;6.10;;;;;;;7.02;82.85;102681.53;4993028;28;20437;-51
2022/04/30 01:20:33;;;;;;;6.53;6.13;;;;;;;6.94;83.22;102672.53;4992442;28;20473;-44
2022/04/30 01:23:04;;;;;;;7.53;6.83;;;;;;;6.83;84.40;102680.53;4992460;28;20470;-46
2022/04/30 01:25:33;;;;;;;7.83;7.10;;;;;;;6.80;85.30;102675.47;4992870;28;20937;-43
2022/04/30 01:28:02;;;;;;;7.17;6.47;;;;;;;6.73;85.71;102672.47;4992825;28;20977;-46
2022/04/30 01:30:29;;;;;;;6.63;6.13;;;;;;;6.68;86.60;102678.16;4992576;28;20795;-44
2022/04/30 01:38:29;;;;;;;12.00;6.93;;;;;;;6.52;89.13;102679.50;4992719;28;20436;-45
2022/04/30 01:40:57;;;;;;;7.73;6.93;;;;;;;6.48;89.79;102678.09;4991689;28;20486;-45
2022/04/30 01:43:26;;;;;;;8.60;7.03;;;;;;;6.42;89.54;102673.28;4992131;28;20433;-44
2022/04/30 01:45:54;;;;;;;17.00;7.97;;;;;;;6.40;90.89;102678.69;4987192;28;20546;-48
2022/04/30 01:48:22;;;;;;;7.13;6.50;;;;;;;6.31;90.75;102675.91;4990128;28;20426;-46
2022/04/30 01:50:50;;;;;;;12.20;8.37;;;;;;;6.28;92.27;102671.72;4993346;28;20454;-46
2022/04/30 01:53:18;;;;;;;8.10;7.50;;;;;;;6.22;92.34;102676.66;5012075;28;20437;-47
2022/04/30 01:55:47;;;;;;;9.63;7.20;;;;;;;6.16;92.94;102675.31;5011993;28;20436;-49
2022/04/30 01:58:15;;;;;;;7.57;7.00;;;;;;;6.10;93.43;102675.81;5012067;28;20445;-47
2022/04/30 02:00:43;;;;;;;8.83;7.97;;;;;;;6.10;93.61;102673.16;5011338;28;20480;-48
2022/04/30 02:03:12;;;;;;;8.73;7.80;;;;;;;6.03;93.90;102669.31;5012175;28;20445;-46
2022/04/30 02:05:42;;;;;;;13.43;8.70;;;;;;;6.02;94.50;102676.44;5011935;28;20937;-46
2022/04/30 02:08:11;;;;;;;12.57;7.83;;;;;;;6.00;94.72;102669.56;5011888;28;20447;-49
2022/04/30 02:10:40;;;;;;;9.90;9.00;;;;;;;5.99;94.75;102667.88;5011462;28;20439;-43
2022/04/30 02:13:10;;;;;;;8.10;7.50;;;;;;;5.98;94.60;102661.72;5011649;28;20437;-43
2022/04/30 02:15:40;;;;;;;8.10;7.40;;;;;;;5.88;95.17;102663.44;5012063;28;20431;-45
2022/04/30 02:18:13;;;;;;;8.40;7.90;;;;;;;5.91;95.26;102655.22;5011998;28;20429;-46
2022/04/30 02:20:44;;;;;;;9.63;8.97;;;;;;;5.88;95.49;102660.78;5010956;28;20473;-47
2022/04/30 02:23:12;;;;;;;8.70;8.00;;;;;;;5.89;95.05;102651.84;5011879;28;20431;-45
2022/04/30 02:25:41;;;;;;;9.47;8.77;;;;;;;5.86;95.25;102648.59;5011956;28;20459;-45
2022/04/30 02:28:10;;;;;;;13.70;9.30;;;;;;;5.86;95.26;102657.38;5011870;28;20425;-43
2022/04/30 02:30:39;;;;;;;10.57;9.73;;;;;;;5.84;95.33;102650.50;5011363;28;20918;-43
2022/04/30 02:33:09;;;;;;;8.97;8.17;;;;;;;5.81;95.16;102653.38;5011490;28;20445;-45
2022/04/30 02:35:38;;;;;;;8.90;8.00;;;;;;;5.78;95.35;102659.75;5011597;28;20429;-45
2022/04/30 02:38:10;;;;;;;10.20;9.40;;;;;;;5.79;95.91;102647.38;5011855;28;20429;-43
2022/04/30 02:40:38;;;;;;;8.90;8.20;;;;;;;5.80;95.79;102647.25;5011263;28;20433;-47
2022/04/30 02:43:07;;;;;;;9.73;8.60;;;;;;;5.75;96.03;102654.72;5011474;28;20976;-43
2022/04/30 02:45:38;;;;;;;10.67;8.23;;;;;;;5.77;96.80;102651.94;5009735;28;20433;-47
2022/04/30 02:48:08;;;;;;;10.60;8.60;;;;;;;5.77;95.83;102649.28;5003335;28;20429;-45
2022/04/30 02:50:36;;;;;;;10.23;8.93;;;;;;;5.78;96.28;102653.63;5011457;28;20441;-45
2022/04/30 02:53:05;;;;;;;10.47;9.50;;;;;;;5.78;95.77;102641.22;5010971;28;20468;-47
2022/04/30 02:55:33;;;;;;;10.10;8.67;;;;;;;5.77;96.61;102651.94;5012602;28;20433;-43
2022/04/30 03:00:49;;;;;;;13.03;8.90;;;;;;;5.74;96.84;102642.41;5014569;28;20459;-46
2022/04/30 03:03:18;;;;;;;10.63;9.80;;;;;;;5.74;96.47;102633.63;5015315;28;20433;-47
2022/04/30 03:05:48;;;;;;;14.87;9.83;;;;;;;5.74;96.77;102644.22;5015061;28;20491;-46
2022/04/30 03:08:19;;;;;;;10.47;9.57;;;;;;;5.75;96.34;102640.63;5015006;28;20437;-44
2022/04/30 03:10:48;;;;;;;10.63;9.53;;;;;;;5.74;96.94;102631.84;5014108;28;20448;-43
2022/04/30 03:13:17;;;;;;;11.03;9.90;;;;;;;5.72;97.13;102646.16;5015155;28;20429;-44
2022/04/30 03:15:47;;;;;;;9.87;9.07;;;;;;;5.69;97.54;102639.31;5014766;28;21029;-44
2022/04/30 03:23:48;;;;;;;13.97;10.57;;;;;;;5.65;97.55;102637.84;5014906;28;20441;-45
2022/04/30 03:26:16;;;;;;;11.67;10.53;;;;;;;5.65;97.61;102642.28;5014822;28;20444;-44
2022/04/30 03:28:44;;;;;;;13.40;10.20;;;;;;;5.58;97.89;102634.81;5014709;28;20425;-45
2022/04/30 03:31:15;;;;;;;10.60;9.80;;;;;;;5.57;97.75;102632.31;5013895;28;20816;-43
2022/04/30 03:33:47;;;;;;;12.17;10.33;;;;;;;5.60;97.33;102632.06;5014436;28;20953;-46
2022/04/30 03:36:15;;;;;;;15.70;10.57;;;;;;;5.61;97.88;102623.19;5014698;28;20531;-45
2022/04/30 03:38:44;;;;;;;16.20;12.30;;;;;;;5.53;97.40;102630.84;5014622;28;20433;-43
2022/04/30 03:41:12;;;;;;;12.80;11.60;;;;;;;5.56;97.25;102627.97;5013588;28;20469;-45
2022/04/30 03:43:39;;;;;;;12.70;11.40;;;;;;;5.51;97.90;102627.47;5014449;28;20435;-43
2022/04/30 03:46:07;;;;;;;17.40;11.03;;;;;;;5.49;97.67;102630.25;5012359;28;20448;-45
2022/04/30 03:48:36;;;;;;;14.13;11.63;;;;;;;5.48;97.26;102627.72;5005951;28;20430;-47
2022/04/30 03:51:05;;;;;;;16.37;12.70;;;;;;;5.48;97.19;102625.91;5013623;28;20540;-45
2022/04/30 03:53:34;;;;;;;16.43;13.73;;;;;;;5.48;97.26;102627.72;5014245;28;20469;-46
2022/04/30 03:56:01;;;;;;;17.80;13.40;;;;;;;5.50;96.66;102628.44;5014219;28;20437;-46
2022/04/30 03:58:30;;;;;;;15.07;12.67;;;;;;;5.49;97.27;102630.25;5013987;28;20437;-46
2022/04/30 04:00:57;;;;;;;17.50;12.77;;;;;;;5.51;96.69;102630.13;5013279;28;20461;-43
2022/04/30 04:03:25;;;;;;;18.33;12.50;;;;;;;5.57;97.46;102627.84;5014036;28;20477;-49
2022/04/30 04:05:54;;;;;;;15.47;13.27;;;;;;;5.52;97.34;102631.81;5014053;28;20432;-48
2022/04/30 04:08:22;;;;;;;13.00;11.70;;;;;;;5.54;97.04;102629.91;5013235;28;20802;-48
2022/04/30 04:10:50;;;;;;;15.03;11.43;;;;;;;5.56;96.91;102633.25;5013133;28;20453;-48
2022/04/30 04:18:51;;;;;;;19.57;13.90;;;;;;;5.66;95.99;102628.94;5013680;28;20519;-44
2022/04/30 04:21:21;;;;;;;16.73;15.17;;;;;;;5.67;96.52;102633.28;5012936;28;20527;-44
2022/04/30 04:26:33;;;;;;;25.13;16.27;;;;;;;5.71;96.55;102639.16;5013736;28;20443;-48
2022/04/30 04:29:01;;;;;;;21.80;15.40;;;;;;;5.79;96.12;102621.75;5013439;28;20940;-43
2022/04/30 04:31:29;;;;;;;17.97;15.30;;;;;;;5.79;96.64;102627.03;5012833;28;20461;-46
2022/04/30 04:33:57;;;;;;;16.40;14.70;;;;;;;5.77;96.59;102634.25;5013409;28;20429;-43
2022/04/30 04:36:26;;;;;;;22.53;16.20;;;;;;;5.85;96.37;102631.00;5013227;28;20437;-44
2022/04/30 04:38:53;;;;;;;20.60;16.23;;;;;;;5.86;95.90;102632.72;5013424;28;20444;-46
2022/04/30 04:41:21;;;;;;;21.50;15.40;;;;;;;5.86;96.80;102627.41;5012585;28;20470;-48
2022/04/30 04:43:48;;;;;;;22.53;14.27;;;;;;;5.92;96.18;102635.72;5013292;28;20476;-46
2022/04/30 04:46:16;;;;;;;18.20;13.93;;;;;;;5.97;96.14;102633.53;5011236;28;20452;-50
2022/04/30 04:48:44;;;;;;;17.03;14.70;;;;;;;6.02;95.79;102636.69;5005331;28;20949;-45
2022/04/30 04:51:12;;;;;;;18.53;15.00;;;;;;;6.04;96.68;102633.91;5012511;28;20477;-45
2022/04/30 04:53:41;;;;;;;16.03;14.37;;;;;;;6.05;96.40;102643.56;5013058;28;20433;-49
2022/04/30 04:56:09;;;;;;;23.93;15.80;;;;;;;6.08;96.48;102641.50;5013120;28;20444;-49
2022/04/30 04:58:36;;;;;;;17.17;15.17;;;;;;;6.15;96.50;102636.56;5013042;28;20436;-49
2022/04/30 05:01:04;;;;;;;18.73;15.70;;;;;;;6.24;97.33;102640.28;5012059;28;20465;-44
2022/04/30 05:03:32;;;;;;;23.30;15.43;;;;;;;6.24;97.57;102635.84;5012677;28;20977;-45
2022/04/30 05:05:59;;;;;;;20.97;16.63;;;;;;;6.32;97.94;102643.16;5012958;28;20868;-46
2022/04/30 05:08:27;;;;;;;19.17;16.40;;;;;;;6.34;97.79;102642.06;5012871;28;20805;-43
2022/04/30 05:10:56;;;;;;;21.17;14.87;;;;;;;6.28;98.26;102654.97;5011873;28;20460;-48
2022/04/30 05:13:24;;;;;;;19.97;14.20;;;;;;;6.28;98.32;102655.81;5012732;28;20432;-48
2022/04/30 05:15:51;;;;;;;18.50;15.20;;;;;;;6.28;97.98;102658.47;5012553;28;20429;-45
2022/04/30 05:18:19;;;;;;;17.30;13.93;;;;;;;6.30;98.38;102661.00;5012623;28;20444;-49
2022/04/30 05:20:47;;;;;;;20.57;16.10;;;;;;;6.28;98.22;102645.22;5011970;28;20459;-47
2022/04/30 05:23:14;;;;;;;20.23;15.97;;;;;;;6.31;98.64;102652.06;5012558;28;20480;-46
2022/04/30 05:25:42;;;;;;;22.10;15.77;;;;;;;6.35;98.90;102658.81;5012561;28;20433;-48
2022/04/30 05:28:11;;;;;;;20.20;16.20;;;;;;;6.40;98.67;102659.28;5012434;28;20807;-46
2022/04/30 05:30:39;;;;;;;22.17;15.80;;;;;;;6.53;98.39;102652.91;5012053;28;20437;-50
2022/04/30 05:33:07;;;;;;;20.47;15.77;;;;;;;6.60;98.76;102662.00;5012233;28;20451;-46
2022/04/30 05:35:34;;;;;;;27.03;17.30;;;;;;;6.69;98.85;102655.13;5012610;28;20455;-48
2022/04/30 05:38:02;;;;;;;23.53;16.50;;;;;;;6.71;98.76;102655.00;5012362;28;20776;-43
2022/04/30 05:40:29;;;;;;;19.57;16.37;;;;;;;6.78;98.35;102653.56;5011782;28;20432;-46
2022/04/30 05:42:57;;;;;;;23.20;17.00;;;;;;;6.80;98.48;102663.06;5011539;28;20481;-43
2022/04/30 05:45:26;;;;;;;21.07;17.23;;;;;;;6.92;98.65;102658.56;5010508;28;20804;-43
2022/04/30 05:47:54;;;;;;;24.73;18.43;;;;;;;7.03;98.51;102654.03;5004098;28;20827;-44
2022/04/30 05:50:22;;;;;;;29.63;17.43;;;;;;;7.13;97.99;102657.63;5011968;28;20803;-47
2022/04/30 05:52:50;;;;;;;19.17;16.90;;;;;;;7.12;97.44;102655.94;5011647;28;20479;-42
2022/04/30 05:55:17;;;;;;;20.80;16.67;;;;;;;7.14;97.40;102659.28;5012085;28;20438;-43
2022/04/30 05:57:45;;;;;;;25.43;18.00;;;;;;;7.16;97.26;102665.34;5012000;28;20768;-50
2022/04/30 06:00:14;;;;;;;19.93;16.70;;;;;;;7.19;97.60;102667.75;5011929;28;20444;-49
2022/04/30 06:02:43;;;;;;;25.50;18.40;;;;;;;7.20;97.19;102669.41;5011419;28;20844;-43
2022/04/30 06:05:11;;;;;;;31.77;19.93;;;;;;;7.24;97.76;102662.03;5012051;28;20866;-46
2022/04/30 06:07:39;;;;;;;24.17;17.17;;;;;;;7.22;97.55;102671.94;5011993;28;20878;-43
2022/04/30 06:10:07;;;;;;;21.03;17.43;;;;;;;7.28;97.23;102663.47;5011890;28;20433;-50
2022/04/30 06:12:35;;;;;;;19.50;17.53;;;;;;;7.37;97.77;102670.66;5011340;28;20472;-46
2022/04/30 06:15:04;;;;;;;21.47;19.07;;;;;;;7.40;96.94;102661.59;5011989;28;20440;-50
2022/04/30 06:17:31;;;;;;;23.97;18.27;;;;;;;7.60;96.83;102666.91;5011863;28;20934;-48
2022/04/30 06:20:00;;;;;;;18.00;15.70;;;;;;;7.66;95.56;102666.38;5011808;28;20460;-44
2022/04/30 06:22:28;;;;;;;20.17;15.13;;;;;;;7.71;94.21;102672.13;5011000;28;20484;-45
2022/04/30 06:24:55;;;;;;;17.20;15.43;;;;;;;7.82;94.08;102673.88;5011935;28;20437;-44
2022/04/30 06:27:23;;;;;;;16.43;14.73;;;;;;;7.92;93.41;102671.25;5011936;28;20436;-46
2022/04/30 06:29:51;;;;;;;17.47;14.67;;;;;;;8.07;92.58;102672.56;5011922;28;20429;-49
2022/04/30 06:32:19;;;;;;;19.93;15.93;;;;;;;8.26;92.50;102667.34;5014947;28;20520;-49
2022/04/30 06:34:46;;;;;;;15.97;14.43;;;;;;;8.37;90.78;102661.09;5010556;28;20429;-46
2022/04/30 06:37:17;;;;;;;15.03;13.63;;;;;;;8.45;89.40;102655.97;5007264;28;20798;-46
2022/04/30 06:39:44;;;;;;;21.00;15.20;;;;;;;8.58;88.82;102657.38;5016141;28;20436;-49
2022/04/30 06:42:12;;;;;;;14.43;12.97;;;;;;;8.66;87.76;102662.03;5014720;28;20468;-46
2022/04/30 06:44:40;;;;;;;14.47;12.10;;;;;;;8.71;87.02;102667.78;5015587;28;20472;-46
2022/04/30 06:47:08;;;;;;;15.50;13.47;;;;;;;8.67;86.66;102659.22;5005048;28;20445;-42
2022/04/30 06:49:36;;;;;;;15.87;13.13;;;;;;;8.64;85.82;102653.34;5014156;28;20428;-46
2022/04/30 06:52:04;;;;;;;15.53;13.93;;;;;;;8.80;86.29;102659.81;5014458;28;20464;-46
2022/04/30 06:57:21;;;;;;;13.50;12.10;;;;;;;9.10;83.64;102660.66;5015275;28;20807;-46
2022/04/30 06:59:51;;;;;;;15.23;12.33;;;;;;;9.09;82.84;102654.50;5015136;28;20435;-45
2022/04/30 07:02:21;;;;;;;15.33;12.87;;;;;;;9.22;82.79;102657.72;5013997;28;20475;-48
2022/04/30 07:04:52;;;;;;;12.10;10.90;;;;;;;9.21;81.41;102661.34;5014934;28;20985;-51
2022/04/30 07:07:21;;;;;;;13.13;11.70;;;;;;;9.29;80.73;102656.16;5015072;28;20436;-44
2022/04/30 07:09:51;;;;;;;13.13;11.83;;;;;;;9.39;80.69;102654.34;5004719;28;20521;-43
2022/04/30 07:12:19;;;;;;;13.40;12.10;;;;;;;9.55;80.73;102652.91;4981205;28;20880;-44
2022/04/30 07:14:48;;;;;;;12.70;11.50;;;;;;;9.73;78.68;102651.19;4975650;28;20517;-48
2022/04/30 07:17:16;;;;;;;13.63;11.90;;;;;;;9.94;78.08;102651.81;4975737;28;20438;-44
2022/04/30 07:19:44;;;;;;;14.13;11.10;;;;;;;10.27;77.12;102648.63;4975668;28;20813;-48
2022/04/30 07:22:13;;;;;;;13.17;12.00;;;;;;;10.38;73.98;102651.06;4974277;28;20485;-43
2022/04/30 07:24:40;;;;;;;13.67;12.37;;;;;;;10.75;73.49;102650.97;4974991;28;20478;-49
2022/04/30 07:27:10;;;;;;;13.13;11.77;;;;;;;10.83;73.53;102644.88;4975301;28;20431;-46
2022/04/30 07:29:38;;;;;;;12.37;11.20;;;;;;;11.02;71.67;102648.22;4974854;28;21252;-46
2022/04/30 07:32:07;;;;;;;13.97;12.60;;;;;;;11.25;70.20;102645.94;4974607;28;20897;-46
2022/04/30 07:34:35;;;;;;;12.70;11.40;;;;;;;11.52;69.82;102650.31;4975386;28;20459;-46
2022/04/30 07:37:04;;;;;;;12.43;11.07;;;;;;;12.01;70.59;102649.63;4975803;28;20453;-41
2022/04/30 07:39:32;;;;;;;12.90;11.60;;;;;;;12.33;69.63;102638.25;4975057;28;20486;-45
2022/04/30 07:41:59;;;;;;;11.47;10.47;;;;;;;12.56;67.07;102647.34;4972785;28;20474;-47
2022/04/30 07:44:30;;;;;;;11.90;10.70;;;;;;;12.32;64.28;102643.72;4975075;28;21020;-46
2022/04/30 07:46:57;;;;;;;10.10;9.40;;;;;;;11.98;64.83;102652.63;4973263;28;20958;-46
2022/04/30 07:49:25;;;;;;;12.33;11.27;;;;;;;12.05;66.72;102650.16;4975205;28;20431;-43
2022/04/30 07:51:56;;;;;;;10.77;9.73;;;;;;;11.36;66.62;102656.38;4974511;28;20466;-46
2022/04/30 07:54:24;;;;;;;10.33;9.27;;;;;;;11.27;66.29;102654.63;4975228;28;20431;-48
2022/04/30 07:56:53;;;;;;;10.13;9.33;;;;;;;11.26;67.51;102655.59;4975622;28;20449;-51
2022/04/30 07:59:20;;;;;;;10.17;8.90;;;;;;;11.51;67.73;102656.63;4974944;28;20947;-48
2022/04/30 08:01:49;;;;;;;11.10;10.30;;;;;;;11.58;66.58;102663.88;4974400;28;20471;-49
2022/04/30 08:04:17;;;;;;;10.03;9.23;;;;;;;11.75;65.83;102659.50;4974943;28;20478;-47
2022/04/30 08:06:45;;;;;;;10.63;9.53;;;;;;;11.87;67.42;102652.06;4974750;28;21033;-48
2022/04/30 08:09:13;;;;;;;11.17;10.07;;;;;;;11.84;67.17;102647.88;4975108;28;20935;-49
2022/04/30 08:11:41;;;;;;;11.00;9.90;;;;;;;11.87;67.52;102646.72;4974053;28;21003;-52
2022/04/30 08:14:09;;;;;;;11.50;10.40;;;;;;;12.37;68.42;102644.06;4974835;28;20458;-50
2022/04/30 08:16:36;;;;;;;11.20;9.50;;;;;;;12.27;64.72;102646.91;4974577;28;20445;-49
2022/04/30 08:19:05;;;;;;;11.57;10.57;;;;;;;12.41;64.92;102659.66;4974602;28;20805;-47
2022/04/30 08:21:33;;;;;;;10.37;9.77;;;;;;;12.85;64.09;102646.03;4974044;28;20479;-50
2022/04/30 08:24:01;;;;;;;11.63;10.43;;;;;;;12.92;61.44;102650.59;4974626;28;20475;-48
2022/04/30 08:26:28;;;;;;;10.20;9.40;;;;;;;13.30;60.87;102649.13;4974546;28;20443;-47
2022/04/30 08:28:56;;;;;;;11.90;11.00;;;;;;;13.71;60.83;102642.69;4974485;28;20435;-50
2022/04/30 08:31:24;;;;;;;10.67;9.67;;;;;;;13.72;58.39;102639.00;4973511;28;20475;-45
2022/04/30 08:33:52;;;;;;;9.53;8.83;;;;;;;13.30;57.39;102633.88;4974257;28;20929;-44
2022/04/30 08:36:21;;;;;;;9.17;8.37;;;;;;;13.16;58.44;102636.41;4974419;28;20445;-51
2022/04/30 08:38:49;;;;;;;9.13;8.07;;;;;;;12.94;58.29;102634.34;4974401;28;20435;-47
2022/04/30 08:41:17;;;;;;;8.07;7.47;;;;;;;12.62;59.50;102640.47;4972379;28;20865;-46
2022/04/30 08:43:48;;;;;;;8.73;7.30;;;;;;;12.66;60.88;102631.13;4973107;28;20434;-48
2022/04/30 08:46:18;;;;;;;8.40;7.70;;;;;;;12.51;61.35;102619.41;4973032;28;20804;-46
2022/04/30 08:48:47;;;;;;;8.63;7.93;;;;;;;12.16;60.20;102620.44;4966124;28;20423;-45
2022/04/30 08:51:16;;;;;;;8.40;7.60;;;;;;;12.39;60.09;102626.03;4972607;28;20832;-45
2022/04/30 08:53:45;;;;;;;8.20;7.50;;;;;;;12.35;61.08;102624.69;4972810;28;20438;-44
2022/04/30 08:56:13;;;;;;;8.37;7.70;;;;;;;12.58;61.35;102626.59;4973048;28;20439;-46
2022/04/30 08:58:41;;;;;;;8.07;7.47;;;;;;;12.95;60.50;102620.78;4972927;28;20438;-50
2022/04/30 09:01:10;;;;;;;8.60;8.00;;;;;;;12.58;60.51;102629.25;4972493;28;20478;-46
2022/04/30 09:03:38;;;;;;;9.17;8.30;;;;;;;13.01;60.34;102627.31;4973240;28;20441;-46
2022/04/30 09:06:07;;;;;;;10.33;8.70;;;;;;;13.11;60.88;102623.50;4972869;28;20482;-49
2022/04/30 09:08:35;;;;;;;9.00;8.20;;;;;;;13.19;58.30;102623.50;4972682;28;20439;-46
2022/04/30 09:11:08;;;;;;;8.37;7.67;;;;;;;13.78;59.41;102624.91;4972066;28;20467;-49
2022/04/30 09:13:44;;;;;;;8.60;7.70;;;;;;;13.47;58.36;102618.59;4973102;28;20445;-46
2022/04/30 09:16:20;;;;;;;8.87;8.20;;;;;;;12.93;60.37;102627.31;4973007;28;20438;-46
2022/04/30 09:18:49;;;;;;;8.33;7.60;;;;;;;13.05;58.61;102623.31;4972829;28;20427;-47
2022/04/30 09:21:18;;;;;;;7.80;7.10;;;;;;;13.40;57.64;102622.16;4972067;28;20493;-49
2022/04/30 09:23:46;;;;;;;8.63;7.07;;;;;;;12.88;58.29;102621.59;4972578;28;20435;-47
2022/04/30 09:26:15;;;;;;;8.07;7.17;;;;;;;13.00;57.71;102625.63;4972774;28;20845;-45
2022/04/30 09:28:46;;;;;;;7.83;7.33;;;;;;;13.06;57.47;102614.25;4972741;28;20430;-46
2022/04/30 09:31:16;;;;;;;7.50;6.80;;;;;;;13.24;57.50;102618.47;4972045;28;20929;-44
2022/04/30 09:33:55;;;;;;;8.87;8.07;;;;;;;13.22;59.25;102615.13;4972610;28;20435;-46
2022/04/30 09:39:13;;;;;;;9.90;7.77;;;;;;;13.17;59.29;102611.28;4972666;28;20438;-46
2022/04/30 09:41:42;;;;;;;6.33;5.83;;;;;;;12.71;58.06;102608.22;4936404;28;1039576;-46
2022/04/30 09:44:12;;;;;;;9.00;6.87;;;;;;;13.23;59.46;102607.94;4973178;28;20693;-44
2022/04/30 09:46:41;;;;;;;8.87;8.07;;;;;;;13.45;59.44;102612.59;4971020;28;20479;-46
2022/04/30 09:54:43;;;;;;;7.70;6.90;;;;;;;14.29;54.43;102599.41;4973069;28;20427;-47
2022/04/30 09:57:15;;;;;;;7.00;6.33;;;;;;;14.89;53.85;102585.25;4972805;28;20948;-48
2022/04/30 09:59:44;;;;;;;6.50;6.00;;;;;;;14.71;52.97;102590.09;4973258;28;20494;-47
2022/04/30 10:02:14;;;;;;;7.50;6.93;;;;;;;14.97;52.93;102593.25;4972444;28;20466;-50
2022/04/30 10:04:44;;;;;;;8.83;6.70;;;;;;;15.05;52.98;102597.72;4972272;28;20437;-47
2022/04/30 10:07:15;;;;;;;7.17;6.27;;;;;;;15.12;51.80;102586.06;4972986;28;20525;-49
2022/04/30 10:09:46;;;;;;;7.33;6.53;;;;;;;15.46;50.47;102580.19;4972836;28;20435;-48
2022/04/30 10:12:23;;;;;;;8.00;6.70;;;;;;;15.21;50.04;102586.81;4972364;28;20493;-51
2022/04/30 10:15:04;;;;;;;6.07;5.67;;;;;;;14.99;52.47;102587.72;4973060;28;20431;-47
2022/04/30 10:17:33;;;;;;;7.30;5.90;;;;;;;15.61;49.88;102591.84;4972806;28;20955;-48
2022/04/30 10:20:06;;;;;;;7.17;6.43;;;;;;;15.87;48.85;102583.28;4972694;28;20473;-51
2022/04/30 10:22:35;;;;;;;8.40;5.97;;;;;;;16.10;49.17;102584.00;4972250;28;20479;-48
2022/04/30 10:25:04;;;;;;;8.27;6.13;;;;;;;16.22;47.91;102576.28;4972828;28;20485;-45
2022/04/30 10:27:44;;;;;;;10.23;6.90;;;;;;;15.93;49.02;102578.00;4972847;28;20478;-48
2022/04/30 10:30:19;;;;;;;7.53;6.40;;;;;;;15.81;49.62;102582.19;4972625;28;20435;-44
2022/04/30 10:32:58;;;;;;;6.90;6.40;;;;;;;16.00;48.52;102570.84;4972240;28;20499;-46
2022/04/30 10:35:30;;;;;;;5.90;5.40;;;;;;;15.40;49.69;102568.34;4972835;28;20430;-46
2022/04/30 10:38:10;;;;;;;6.60;6.07;;;;;;;14.50;50.16;102574.63;4972750;28;20439;-48
2022/04/30 10:40:39;;;;;;;5.80;5.40;;;;;;;14.44;50.73;102569.97;4972237;28;20430;-45
2022/04/30 10:43:18;;;;;;;6.40;5.90;;;;;;;14.38;51.02;102570.69;4991780;28;20476;-47
2022/04/30 10:45:46;;;;;;;5.67;5.37;;;;;;;14.46;49.63;102567.94;4991959;28;20500;-46
2022/04/30 10:48:14;;;;;;;6.13;5.70;;;;;;;14.36;50.49;102567.34;4991972;28;20521;-47
2022/04/30 10:50:42;;;;;;;6.17;5.67;;;;;;;14.25;49.98;102565.84;4991299;28;20477;-49
2022/04/30 10:53:11;;;;;;;6.13;5.50;;;;;;;14.24;51.94;102552.63;4991899;28;20967;-48
2022/04/30 10:55:40;;;;;;;5.63;5.23;;;;;;;13.95;52.13;102552.47;4992044;28;20524;-51
2022/04/30 10:58:07;;;;;;;6.13;5.17;;;;;;;13.88;51.99;102548.78;4992135;28;20444;-46
2022/04/30 11:00:36;;;;;;;6.17;5.60;;;;;;;13.61;54.53;102558.09;4991566;28;20441;-44
2022/04/30 11:03:09;;;;;;;5.83;5.33;;;;;;;13.50;55.01;102553.13;4991667;28;20454;-44
2022/04/30 11:05:37;;;;;;;8.63;6.23;;;;;;;13.88;53.25;102546.94;4991740;28;20505;-45
2022/04/30 11:08:05;;;;;;;8.10;6.17;;;;;;;13.95;51.74;102545.22;4991649;28;20434;-45
2022/04/30 11:10:33;;;;;;;5.40;4.90;;;;;;;14.17;52.11;102549.81;4991358;28;20434;-46
2022/04/30 11:13:05;;;;;;;5.30;4.90;;;;;;;13.84;50.25;102553.66;4991489;28;20481;-47
2022/04/30 11:15:33;;;;;;;5.77;5.30;;;;;;;13.74;50.35;102543.13;4991881;28;20430;-44
2022/04/30 11:18:02;;;;;;;6.40;5.90;;;;;;;13.93;52.92;102541.06;4995012;28;20998;-46
2022/04/30 11:20:30;;;;;;;7.00;5.90;;;;;;;14.24;53.44;102539.22;4994820;28;21079;-45
2022/04/30 11:23:00;;;;;;;7.07;5.70;;;;;;;14.55;51.78;102529.28;4994712;28;20813;-44
2022/04/30 11:25:34;;;;;;;12.60;6.30;;;;;;;14.22;48.63;102539.38;4995204;28;20513;-47
2022/04/30 11:28:01;;;;;;;5.40;5.00;;;;;;;13.85;49.72;102534.72;4995171;28;20438;-49
2022/04/30 11:30:29;;;;;;;6.23;5.20;;;;;;;13.71;50.26;102540.81;4994749;28;20802;-49
2022/04/30 11:32:57;;;;;;;6.97;5.87;;;;;;;13.69;51.44;102531.25;4994398;28;20831;-50
2022/04/30 11:35:26;;;;;;;6.53;5.93;;;;;;;13.69;54.63;102532.09;4995050;28;20831;-45
2022/04/30 11:37:54;;;;;;;5.73;5.43;;;;;;;13.75;52.82;102526.06;4994975;28;20816;-48
2022/04/30 11:40:23;;;;;;;5.30;5.00;;;;;;;13.86;53.08;102536.38;4994574;28;20438;-48
2022/04/30 11:42:57;;;;;;;6.87;6.27;;;;;;;13.74;52.12;102527.03;4994257;28;20465;-50
2022/04/30 11:45:27;;;;;;;7.67;5.80;;;;;;;13.78;50.90;102528.38;4994443;28;20438;-47
2022/04/30 11:47:54;;;;;;;10.50;5.83;;;;;;;14.01;52.36;102519.56;4994809;28;20437;-53
2022/04/30 11:50:22;;;;;;;6.70;6.10;;;;;;;14.50;51.62;102520.09;4994592;28;20440;-50
2022/04/30 11:52:52;;;;;;;5.70;5.30;;;;;;;14.71;52.65;102525.66;4994155;28;20472;-46
2022/04/30 11:55:21;;;;;;;7.40;6.07;;;;;;;14.86;50.92;102516.63;4994676;28;20441;-50
2022/04/30 11:57:50;;;;;;;8.30;6.50;;;;;;;14.92;50.81;102515.06;4994522;28;20939;-51
2022/04/30 12:00:20;;;;;;;7.87;6.37;;;;;;;14.98;51.55;102514.34;4994479;28;20434;-49
2022/04/30 12:02:49;;;;;;;5.37;5.07;;;;;;;14.84;51.54;102510.56;4993958;28;20472;-51